Time;durP1;ratioP1;P1;durP2;ratioP2;P2;SDS_P1;SDS_P2;PMS_P1;PMS_P2;Temp;Humidity;BMP_temperature;BMP_pressure;BME280_temperature;BME280_humidity;BME280_pressure;Samples;Min_cycle;Max_cycle;Signal;HPM_P1;HPM_P2
2023/04/14 00:00:50;;;;;;;25.90;23.60;;;;;;;8.09;100.00;96886.50;109698;1290;22203;-91
2023/04/14 00:03:18;;;;;;;26.80;24.20;;;;;;;8.08;100.00;96882.06;109709;1290;22181;-86
2023/04/14 00:05:46;;;;;;;30.30;27.60;;;;;;;8.07;100.00;96880.27;109630;1290;22339;-91
2023/04/14 00:08:14;;;;;;;31.60;29.00;;;;;;;8.06;100.00;96880.08;109453;1289;22276;-92
2023/04/14 00:10:42;;;;;;;27.50;25.10;;;;;;;8.07;100.00;96876.73;109693;1290;22175;-93
2023/04/14 00:13:10;;;;;;;28.30;26.00;;;;;;;8.07;100.00;96877.52;109711;1290;22107;-91
2023/04/14 00:15:41;;;;;;;27.40;25.00;;;;;;;8.04;100.00;96869.35;109511;1290;22702;-89
2023/04/14 00:18:09;;;;;;;26.40;24.20;;;;;;;8.00;100.00;96858.54;109892;1290;22148;-86
2023/04/14 00:20:38;;;;;;;25.90;23.70;;;;;;;7.96;100.00;96855.87;109905;1291;22126;-88
2023/04/14 00:23:06;;;;;;;27.20;24.70;;;;;;;7.95;100.00;96858.50;109696;1290;22243;-92
2023/04/14 00:25:34;;;;;;;28.00;25.70;;;;;;;7.95;100.00;96867.41;109649;1289;22413;-91
2023/04/14 00:28:02;;;;;;;24.70;22.60;;;;;;;7.98;100.00;96865.46;109628;1290;22326;-91
2023/04/14 00:30:30;;;;;;;27.20;24.80;;;;;;;8.00;100.00;96861.94;109646;1290;22776;-92
2023/04/14 00:32:58;;;;;;;26.60;24.20;;;;;;;8.00;100.00;96863.13;109620;1290;23022;-90
2023/04/14 00:35:26;;;;;;;28.70;26.20;;;;;;;8.00;100.00;96869.88;109492;1290;22417;-90
2023/04/14 00:37:55;;;;;;;27.00;24.50;;;;;;;8.03;100.00;96875.86;109601;1290;23101;-89
2023/04/14 00:40:24;;;;;;;26.80;24.60;;;;;;;8.08;100.00;96871.02;109592;1290;22185;-89
2023/04/14 00:42:51;;;;;;;27.40;25.10;;;;;;;8.08;100.00;96872.77;109491;1290;164184;-90
2023/04/14 00:45:20;;;;;;;27.60;25.40;;;;;;;8.08;100.00;96873.10;109594;1290;22270;-92
2023/04/14 00:47:49;;;;;;;29.10;26.50;;;;;;;8.10;100.00;96869.61;109624;1290;22354;-86
2023/04/14 00:50:19;;;;;;;28.10;25.50;;;;;;;8.12;100.00;96869.57;109621;1290;22602;-91
2023/04/14 00:52:49;;;;;;;27.80;25.30;;;;;;;8.15;100.00;96867.30;109653;1290;22210;-89
2023/04/14 00:55:21;;;;;;;29.10;26.60;;;;;;;8.20;100.00;96867.48;109599;1290;22114;-87
2023/04/14 00:57:49;;;;;;;27.30;24.90;;;;;;;8.23;100.00;96865.42;109641;1290;22288;-91
2023/04/14 01:00:18;;;;;;;28.40;25.70;;;;;;;8.27;100.00;96860.27;109626;1263;22391;-87
2023/04/14 01:02:46;;;;;;;26.40;24.00;;;;;;;8.29;100.00;96857.64;109600;1291;22119;-88
2023/04/14 01:05:15;;;;;;;29.10;26.50;;;;;;;8.29;100.00;96851.84;109500;1292;22209;-87
2023/04/14 01:07:44;;;;;;;31.10;28.10;;;;;;;8.30;100.00;96848.11;109485;1292;22242;-89
2023/04/14 01:10:12;;;;;;;30.30;27.80;;;;;;;8.28;100.00;96847.41;109467;1266;22156;-90
2023/04/14 01:12:55;;;;;;;31.00;28.30;;;;;;;8.27;100.00;96845.74;109552;1290;22144;-88
2023/04/14 01:15:59;;;;;;;49.90;45.60;;;;;;;8.30;100.00;96848.05;109561;1290;22282;-89
2023/04/14 01:18:50;;;;;;;32.30;29.30;;;;;;;8.29;100.00;96848.90;109311;1290;22312;-91
2023/04/14 01:21:57;;;;;;;29.80;27.10;;;;;;;8.27;100.00;96845.73;109746;1272;22756;31
2023/04/14 01:27:30;;;;;;;33.00;30.10;;;;;;;8.22;100.00;96842.42;109713;1264;22180;-95
2023/04/14 01:30:35;;;;;;;34.00;30.90;;;;;;;8.17;100.00;96843.45;109795;1290;22147;-88
2023/04/14 01:33:05;;;;;;;;;;;;;;;8.16;100.00;96838.48;109876;1291;22405;-91
2023/04/14 01:35:37;;;;;;;33.80;30.80;;;;;;;8.16;100.00;96840.01;109601;1291;22353;-94
2023/04/14 01:38:13;;;;;;;32.50;29.70;;;;;;;8.18;100.00;96842.52;109747;1291;22256;-92
2023/04/14 01:40:48;;;;;;;31.40;28.60;;;;;;;8.19;100.00;96845.75;109859;1291;21904;-92
2023/04/14 01:46:20;;;;;;;31.70;28.60;;;;;;;8.21;100.00;96852.20;109775;1290;21959;-89
2023/04/14 01:48:49;;;;;;;31.40;28.50;;;;;;;8.25;100.00;96846.11;109861;1291;22117;-92
2023/04/14 01:51:20;;;;;;;33.70;30.80;;;;;;;8.28;100.00;96844.16;109751;1259;22388;-88
2023/04/14 01:53:49;;;;;;;35.00;31.70;;;;;;;8.24;100.00;96836.63;109845;1291;22266;-87
2023/04/14 01:56:19;;;;;;;35.80;32.70;;;;;;;8.24;100.00;96836.73;109887;1291;22198;-92
2023/04/14 01:58:48;;;;;;;31.20;28.50;;;;;;;8.16;100.00;96835.77;109815;1267;22082;-82
2023/04/14 02:01:17;;;;;;;31.70;28.70;;;;;;;8.10;100.00;96833.65;109746;1266;21946;-86
2023/04/14 02:03:50;;;;;;;31.60;28.90;;;;;;;8.07;100.00;96835.34;109786;1266;22672;31
2023/04/14 02:06:30;;;;;;;28.90;26.20;;;;;;;8.06;100.00;96835.54;109788;1261;22354;31
2023/04/14 02:09:04;;;;;;;30.00;27.40;;;;;;;8.07;100.00;96832.06;109721;1261;23167;-92
2023/04/14 02:11:34;;;;;;;32.40;29.60;;;;;;;8.10;100.00;96828.63;109885;1291;22309;-85
2023/04/14 02:14:04;;;;;;;31.00;28.20;;;;;;;8.12;100.00;96828.53;109768;1264;22418;-89
2023/04/14 02:16:34;;;;;;;35.30;32.20;;;;;;;8.13;100.00;96821.30;109781;1264;22147;-95
2023/04/14 02:19:04;;;;;;;35.50;32.40;;;;;;;8.13;100.00;96816.86;109808;1290;22175;-94
2023/04/14 02:21:34;;;;;;;33.00;30.00;;;;;;;8.12;100.00;96810.81;109826;1287;22169;-94
2023/04/14 02:24:02;;;;;;;29.30;26.60;;;;;;;8.09;100.00;96807.71;109796;1290;22168;-94
2023/04/14 02:26:37;;;;;;;28.00;25.50;;;;;;;8.07;100.00;96807.39;109826;1290;22238;-91
2023/04/14 02:29:14;;;;;;;28.40;25.90;;;;;;;8.08;100.00;96806.27;109895;1290;22219;-92
2023/04/14 02:31:48;;;;;;;29.60;27.00;;;;;;;8.10;100.00;96803.08;109844;1290;22230;-89
2023/04/14 02:34:22;;;;;;;27.70;25.30;;;;;;;8.12;100.00;96806.09;109847;1290;22140;-95
2023/04/14 02:36:56;;;;;;;29.10;26.40;;;;;;;8.14;100.00;96801.74;109846;1290;22049;-95
2023/04/14 02:42:29;;;;;;;30.40;27.80;;;;;;;8.19;100.00;96800.83;109758;1291;22892;-93
2023/04/14 02:45:04;;;;;;;27.10;24.70;;;;;;;8.21;100.00;96798.02;109662;1291;22170;-94
2023/04/14 02:47:36;;;;;;;29.00;26.40;;;;;;;8.22;100.00;96799.65;109715;1291;22252;-93
2023/04/14 02:50:08;;;;;;;29.30;25.20;;;;;;;8.25;100.00;96795.55;109521;1291;22440;-92
2023/04/14 02:52:39;;;;;;;26.70;24.40;;;;;;;8.26;100.00;96791.58;109679;1291;22166;-93
2023/04/14 02:55:09;;;;;;;26.70;24.40;;;;;;;8.24;100.00;96786.15;109636;1291;23168;-92
2023/04/14 02:57:38;;;;;;;40.30;37.00;;;;;;;8.20;100.00;96785.84;109590;1291;22307;-91
2023/04/14 03:00:08;;;;;;;33.80;30.90;;;;;;;8.17;100.00;96784.31;109551;1291;22144;-93
2023/04/14 03:02:38;;;;;;;28.40;25.90;;;;;;;8.15;100.00;96780.40;109623;1291;22377;-93
2023/04/14 03:05:15;;;;;;;27.80;25.40;;;;;;;8.13;100.00;96780.14;109709;1261;22446;31
2023/04/14 03:07:53;;;;;;;27.00;24.50;;;;;;;8.13;100.00;96776.66;109621;1266;22248;-93
2023/04/14 03:10:23;;;;;;;26.80;24.50;;;;;;;8.10;100.00;96770.94;109735;1266;22164;-89
2023/04/14 03:13:40;;;;;;;27.60;25.20;;;;;;;8.09;100.00;96771.13;109815;1261;22429;31
2023/04/14 03:16:09;;;;;;;26.20;23.90;;;;;;;8.11;100.00;96762.48;105814;1263;22472;-91
2023/04/14 03:18:39;;;;;;;43.00;39.50;;;;;;;8.13;100.00;96760.38;109767;1266;22472;-87
2023/04/14 03:21:07;;;;;;;32.70;30.00;;;;;;;8.09;100.00;96755.83;109730;1264;22618;-92
2023/04/14 03:23:36;;;;;;;28.60;26.10;;;;;;;8.11;100.00;96760.77;109778;1267;23017;-94
2023/04/14 03:26:08;;;;;;;27.30;25.00;;;;;;;8.07;100.00;96762.53;109660;1266;22069;-91
2023/04/14 03:28:40;;;;;;;27.90;25.50;;;;;;;8.05;100.00;96759.28;109798;1290;22244;-91
2023/04/14 03:31:10;;;;;;;27.40;24.90;;;;;;;8.05;100.00;96761.35;109894;1290;22142;-87
2023/04/14 03:33:56;;;;;;;25.70;23.40;;;;;;;8.05;100.00;96765.43;109827;1273;22141;-82
2023/04/14 03:41:08;;;;;;;28.00;25.70;;;;;;;8.00;100.00;96767.68;109673;1269;22343;31
2023/04/14 03:43:56;;;;;;;30.50;28.10;;;;;;;7.95;100.00;96758.41;108303;1267;23816;31
2023/04/14 03:46:27;;;;;;;27.80;25.50;;;;;;;7.92;100.00;96755.48;108732;1267;22100;-88
2023/04/14 03:52:57;;;;;;;31.60;29.00;;;;;;;7.85;100.00;96756.80;109789;1266;22377;31
2023/04/14 03:58:42;;;;;;;33.50;30.70;;;;;;;7.78;99.97;96751.38;88418;1267;22727;-90
2023/04/14 04:01:13;;;;;;;38.20;34.90;;;;;;;7.69;100.00;96749.70;109774;1290;22929;-91
2023/04/14 04:03:42;;;;;;;32.30;29.70;;;;;;;7.64;100.00;96751.39;109763;1290;22198;-93
2023/04/14 04:06:11;;;;;;;33.10;30.30;;;;;;;7.59;100.00;96748.52;109577;1290;22216;-91
2023/04/14 04:08:40;;;;;;;33.30;30.40;;;;;;;7.57;100.00;96744.16;109740;1290;22276;-89
2023/04/14 04:11:10;;;;;;;34.70;31.80;;;;;;;7.56;100.00;96745.33;109661;1290;22139;-90
2023/04/14 04:13:40;;;;;;;32.70;29.90;;;;;;;7.53;99.97;96749.46;109721;1291;22209;-87
2023/04/14 04:16:10;;;;;;;32.30;29.70;;;;;;;7.49;100.00;96747.20;109653;1266;22251;-92
2023/04/14 04:18:41;;;;;;;29.20;26.70;;;;;;;7.47;99.98;96749.30;109688;1290;22302;-90
2023/04/14 04:21:10;;;;;;;38.30;35.30;;;;;;;7.45;100.00;96747.62;109625;1290;22998;-91
2023/04/14 04:23:52;;;;;;;31.60;29.00;;;;;;;7.46;100.00;96742.89;109613;1261;22216;-88
2023/04/14 04:26:24;;;;;;;39.50;36.40;;;;;;;7.50;100.00;96744.79;109599;1291;22253;-93
2023/04/14 04:28:56;;;;;;;31.70;29.10;;;;;;;7.54;100.00;96751.17;109563;1291;22231;-92
2023/04/14 04:31:27;;;;;;;30.70;28.10;;;;;;;7.56;100.00;96760.34;109395;1291;22759;-91
2023/04/14 04:33:57;;;;;;;37.70;34.30;;;;;;;7.59;100.00;96761.80;109563;1291;22233;-89
2023/04/14 04:36:26;;;;;;;35.50;32.30;;;;;;;7.63;100.00;96759.52;109521;1291;22888;-93
2023/04/14 04:38:55;;;;;;;37.00;33.70;;;;;;;7.65;100.00;96759.95;109506;1291;21981;-88
2023/04/14 04:41:29;;;;;;;35.30;32.30;;;;;;;7.67;100.00;96760.17;109855;1291;22187;-88
2023/04/14 04:44:00;;;;;;;37.30;34.20;;;;;;;7.66;100.00;96761.67;109666;1291;22905;-91
2023/04/14 04:46:43;;;;;;;40.50;36.80;;;;;;;7.64;100.00;96757.45;109392;1291;22208;-91
2023/04/14 04:49:11;;;;;;;38.30;34.90;;;;;;;7.61;100.00;96757.14;109362;1291;22122;-88
2023/04/14 04:51:39;;;;;;;35.80;32.80;;;;;;;7.63;100.00;96754.85;109583;1291;22202;-89
2023/04/14 04:54:07;;;;;;;33.50;30.60;;;;;;;7.64;100.00;96755.55;109337;1291;22122;-91
2023/04/14 04:56:35;;;;;;;33.90;31.10;;;;;;;7.68;100.00;96759.55;109598;1291;22252;-90
2023/04/14 04:59:03;;;;;;;31.40;28.70;;;;;;;7.70;100.00;96759.81;109597;1291;22276;-92
2023/04/14 05:01:31;;;;;;;33.50;30.60;;;;;;;7.75;100.00;96759.96;109582;1291;23104;-91
2023/04/14 05:04:00;;;;;;;34.80;31.70;;;;;;;7.80;100.00;96760.58;109558;1292;22288;-91
2023/04/14 05:06:28;;;;;;;33.70;31.10;;;;;;;7.85;100.00;96760.86;109521;1292;22123;-88
2023/04/14 05:08:56;;;;;;;36.50;33.30;;;;;;;7.88;100.00;96757.15;109516;1292;22310;-92
2023/04/14 05:11:25;;;;;;;35.20;32.10;;;;;;;7.89;100.00;96746.87;109303;1292;22259;-90
2023/04/14 05:13:53;;;;;;;31.80;29.10;;;;;;;7.90;100.00;96749.27;109488;1292;22257;-92
2023/04/14 05:16:21;;;;;;;33.10;30.20;;;;;;;7.91;100.00;96742.11;109538;1292;22132;-91
2023/04/14 05:18:51;;;;;;;33.30;30.50;;;;;;;7.93;100.00;96737.11;109510;1292;22271;-92
2023/04/14 05:21:24;;;;;;;33.20;30.30;;;;;;;7.98;100.00;96736.48;109709;1264;22383;-83
2023/04/14 05:23:52;;;;;;;37.30;34.20;;;;;;;8.02;100.00;96726.79;109651;1290;22027;-92
2023/04/14 05:26:21;;;;;;;38.10;34.90;;;;;;;8.01;100.00;96723.92;109676;1290;22359;-88
2023/04/14 05:28:52;;;;;;;40.90;37.10;;;;;;;8.04;100.00;96710.16;109665;1290;22170;-87
2023/04/14 05:31:21;;;;;;;38.30;34.90;;;;;;;8.09;100.00;96704.76;109611;1290;23063;-89
2023/04/14 05:33:49;;;;;;;39.60;36.00;;;;;;;8.12;100.00;96694.54;109465;1290;23184;-87
2023/04/14 05:36:17;;;;;;;38.00;34.60;;;;;;;8.17;100.00;96686.89;109605;1290;22814;-89
2023/04/14 05:38:45;;;;;;;38.40;34.90;;;;;;;8.24;100.00;96687.58;109619;1290;22325;-89
2023/04/14 05:41:13;;;;;;;36.10;32.80;;;;;;;8.33;100.00;96684.91;109478;1290;22947;-89
2023/04/14 05:43:41;;;;;;;36.80;33.40;;;;;;;8.38;100.00;96681.93;109608;1290;22373;-89
2023/04/14 05:46:16;;;;;;;34.50;31.40;;;;;;;8.48;100.00;96674.89;109788;1260;21948;31
2023/04/14 05:48:44;;;;;;;36.30;33.20;;;;;;;8.55;100.00;96681.58;109774;1264;22232;-93
2023/04/14 05:51:12;;;;;;;39.40;35.90;;;;;;;8.60;100.00;96675.38;109864;1290;22190;-86
2023/04/14 05:53:40;;;;;;;37.60;34.30;;;;;;;8.67;100.00;96671.20;109840;1290;22292;-90
2023/04/14 05:56:10;;;;;;;41.60;38.10;;;;;;;8.74;100.00;96667.13;109837;1284;22183;-86
2023/04/14 05:58:43;;;;;;;38.20;34.80;;;;;;;8.83;100.00;96661.12;109761;1264;22760;31
2023/04/14 06:01:17;;;;;;;35.70;32.50;;;;;;;8.97;100.00;96655.14;109765;1260;21850;-89
2023/04/14 06:03:45;;;;;;;35.00;32.00;;;;;;;9.12;100.00;96655.27;109367;1267;22178;-95
2023/04/14 06:06:13;;;;;;;34.20;31.20;;;;;;;9.25;100.00;96656.70;109701;1292;22191;-91
2023/04/14 06:08:41;;;;;;;35.90;32.70;;;;;;;9.38;100.00;96657.29;109716;1292;22237;-93
2023/04/14 06:11:10;;;;;;;36.70;33.50;;;;;;;9.49;100.00;96659.15;109583;1291;22274;-90
2023/04/14 06:13:38;;;;;;;35.80;32.50;;;;;;;9.58;100.00;96658.40;109680;1292;22803;-87
2023/04/14 06:16:06;;;;;;;33.10;30.20;;;;;;;9.67;100.00;96661.77;109741;1291;22245;-91
2023/04/14 06:18:34;;;;;;;33.80;30.80;;;;;;;9.80;100.00;96655.52;109730;1292;22279;-90
2023/04/14 06:21:02;;;;;;;31.20;28.30;;;;;;;9.94;100.00;96663.77;109727;1292;22227;-92
2023/04/14 06:23:31;;;;;;;30.60;27.80;;;;;;;10.11;100.00;96668.72;109578;1292;22274;-91
2023/04/14 06:25:59;;;;;;;33.20;30.30;;;;;;;10.26;100.00;96671.02;109500;1292;23209;-87
2023/04/14 06:28:27;;;;;;;33.80;30.70;;;;;;;10.36;100.00;96670.65;109476;1292;22147;-88
2023/04/14 06:30:55;;;;;;;29.60;26.90;;;;;;;10.46;100.00;96669.01;109565;1291;22244;-88
2023/04/14 06:33:23;;;;;;;30.50;27.30;;;;;;;10.59;99.96;96667.73;109698;1292;22969;-93
2023/04/14 06:35:51;;;;;;;31.20;28.30;;;;;;;10.67;99.71;96671.73;109555;1292;22237;-88
2023/04/14 06:38:19;;;;;;;32.10;29.40;;;;;;;10.74;99.18;96668.27;109527;1291;22206;-88
2023/04/14 06:40:47;;;;;;;32.80;29.80;;;;;;;10.76;98.70;96668.11;109511;1291;22088;-89
2023/04/14 06:43:17;;;;;;;30.20;27.60;;;;;;;10.77;97.50;96669.94;109536;1291;22121;-88
2023/04/14 06:45:45;;;;;;;30.60;27.60;;;;;;;10.80;97.32;96670.93;109549;1292;22133;-90
2023/04/14 06:48:14;;;;;;;30.50;27.50;;;;;;;10.83;97.25;96667.92;109556;1291;22285;-88
2023/04/14 06:50:42;;;;;;;31.30;28.30;;;;;;;10.87;96.36;96666.27;109557;1292;22232;-91
2023/04/14 06:53:11;;;;;;;31.70;28.60;;;;;;;10.88;95.85;96666.62;109668;1292;22927;-90
2023/04/14 06:55:41;;;;;;;30.50;27.90;;;;;;;10.90;95.39;96664.06;109799;1292;22123;-86
2023/04/14 06:58:09;;;;;;;29.60;26.80;;;;;;;10.91;95.54;96656.80;109816;1291;22165;-87
2023/04/14 07:00:37;;;;;;;29.80;26.80;;;;;;;10.93;95.05;96652.02;109785;1292;22205;-88
2023/04/14 07:03:05;;;;;;;27.60;25.20;;;;;;;10.98;94.86;96648.72;109770;1291;22120;-87
2023/04/14 07:05:33;;;;;;;29.30;26.40;;;;;;;10.99;93.77;96651.21;109761;1292;22293;-89
2023/04/14 07:08:02;;;;;;;28.70;26.00;;;;;;;10.98;94.00;96647.48;109537;1292;22287;-91
2023/04/14 07:10:29;;;;;;;28.20;25.50;;;;;;;10.99;92.55;96636.91;109519;1292;22241;-90
2023/04/14 07:12:57;;;;;;;27.30;24.80;;;;;;;10.98;92.53;96628.95;109510;1292;22222;-88
2023/04/14 07:15:25;;;;;;;27.20;24.30;;;;;;;11.04;92.67;96623.13;109513;1292;22400;-93
2023/04/14 07:17:54;;;;;;;26.70;24.20;;;;;;;11.08;92.30;96623.57;109538;1292;22164;-90
2023/04/14 07:20:24;;;;;;;25.80;23.50;;;;;;;11.11;91.52;96618.14;109549;1292;22214;-88
2023/04/14 07:22:52;;;;;;;24.20;22.00;;;;;;;11.12;90.37;96614.65;109669;1291;22190;-90
2023/04/14 07:25:51;;;;;;;23.30;21.10;;;;;;;11.13;89.49;96611.45;109807;1292;22222;-85
2023/04/14 07:28:20;;;;;;;22.10;19.80;;;;;;;11.23;90.37;96613.95;109775;1291;22198;-89
2023/04/14 07:30:49;;;;;;;21.40;19.40;;;;;;;11.34;89.15;96615.38;109562;1291;22298;-91
2023/04/14 07:33:18;;;;;;;22.90;20.70;;;;;;;11.45;89.41;96620.73;109542;1291;22186;-90
2023/04/14 07:35:49;;;;;;;21.40;19.50;;;;;;;11.53;87.91;96616.39;109472;1291;22144;-92
2023/04/14 07:38:31;;;;;;;22.50;20.40;;;;;;;11.57;86.06;96612.27;109510;1292;22277;-91
2023/04/14 07:41:03;;;;;;;24.40;21.90;;;;;;;11.57;86.67;96606.89;109541;1291;22297;-90
2023/04/14 07:43:34;;;;;;;28.10;22.30;;;;;;;11.64;87.36;96603.77;109503;1291;22374;-88
2023/04/14 07:46:04;;;;;;;22.20;19.90;;;;;;;11.75;85.79;96600.95;109435;1292;22106;-85
2023/04/14 07:48:35;;;;;;;22.50;20.30;;;;;;;11.91;86.39;96604.48;109515;1292;22960;-87
2023/04/14 07:51:04;;;;;;;21.70;19.40;;;;;;;12.08;85.23;96608.71;109482;1291;23208;-88
2023/04/14 07:53:32;;;;;;;20.40;18.40;;;;;;;12.23;83.05;96611.94;109439;1291;22315;-87
2023/04/14 07:56:00;;;;;;;21.80;19.50;;;;;;;12.33;81.40;96612.86;109233;1292;22201;-87
2023/04/14 07:58:28;;;;;;;21.90;19.80;;;;;;;12.38;80.44;96618.39;109491;1292;22202;-86
2023/04/14 08:00:57;;;;;;;19.90;17.80;;;;;;;12.41;81.00;96615.58;109484;1291;22083;-86
2023/04/14 08:03:25;;;;;;;21.70;19.40;;;;;;;12.46;79.58;96617.94;109484;1291;22839;-91
2023/04/14 08:05:54;;;;;;;21.40;19.10;;;;;;;12.46;80.07;96617.78;109497;1291;22233;-87
2023/04/14 08:08:23;;;;;;;21.20;19.10;;;;;;;12.49;80.00;96614.17;109470;1291;22408;-87
2023/04/14 08:10:51;;;;;;;22.20;19.90;;;;;;;12.48;78.66;96611.83;109469;1291;22298;-86
2023/04/14 08:13:19;;;;;;;22.30;20.00;;;;;;;12.46;78.85;96609.91;109491;1291;22798;-87
2023/04/14 08:15:47;;;;;;;18.50;16.70;;;;;;;12.49;78.78;96604.14;109497;1292;22250;-88
2023/04/14 08:18:15;;;;;;;18.90;16.90;;;;;;;12.55;77.97;96597.91;109470;1292;22164;-87
2023/04/14 08:20:43;;;;;;;18.10;16.10;;;;;;;12.61;76.37;96586.55;109479;1291;22204;-86
2023/04/14 08:23:11;;;;;;;17.50;15.80;;;;;;;12.65;77.30;96592.46;109482;1291;22252;-87
2023/04/14 08:25:39;;;;;;;17.20;15.50;;;;;;;12.78;77.28;96583.95;109482;1292;22256;-85
2023/04/14 08:28:07;;;;;;;16.90;15.20;;;;;;;12.90;77.44;96577.46;109480;1292;22626;-87
2023/04/14 08:30:35;;;;;;;16.40;14.70;;;;;;;13.00;75.48;96578.02;109491;1292;22247;-87
2023/04/14 08:33:03;;;;;;;15.80;14.30;;;;;;;13.08;75.64;96579.64;109474;1292;22283;-87
2023/04/14 08:35:32;;;;;;;15.30;13.70;;;;;;;13.20;75.97;96571.05;109474;1292;22206;-87
2023/04/14 08:38:08;;;;;;;15.20;13.30;;;;;;;13.31;75.43;96568.56;109478;1292;22758;-86
2023/04/14 08:40:41;;;;;;;14.30;12.90;;;;;;;13.45;75.59;96561.33;109495;1291;22255;-87
2023/04/14 08:43:09;;;;;;;15.80;12.10;;;;;;;13.67;74.98;96561.63;109541;1291;22224;-87
2023/04/14 08:45:42;;;;;;;13.40;11.40;;;;;;;13.82;72.84;96556.79;109483;1291;22152;-86
2023/04/14 08:48:10;;;;;;;12.80;11.60;;;;;;;13.97;71.16;96561.23;109454;1291;22121;-86
2023/04/14 08:50:48;;;;;;;14.80;10.70;;;;;;;14.11;69.91;96569.04;109492;1291;22215;-85
2023/04/14 08:53:19;;;;;;;13.00;11.40;;;;;;;14.18;68.92;96568.34;109489;1291;22138;-88
2023/04/14 08:55:50;;;;;;;14.60;12.10;;;;;;;14.26;69.79;96570.05;109492;1291;22431;-88
2023/04/14 08:58:18;;;;;;;12.00;10.80;;;;;;;14.35;69.37;96573.02;109503;1291;22257;-86
2023/04/14 09:00:48;;;;;;;12.10;10.40;;;;;;;14.47;67.82;96571.42;109491;1291;22191;-86
2023/04/14 09:03:17;;;;;;;11.80;10.60;;;;;;;14.55;64.86;96573.86;109479;1291;22137;-87
2023/04/14 09:05:46;;;;;;;11.90;10.80;;;;;;;14.59;66.00;96575.41;109478;1292;22222;-88
2023/04/14 09:08:15;;;;;;;13.90;10.60;;;;;;;14.70;66.40;96580.83;109500;1291;22254;-86
2023/04/14 09:10:44;;;;;;;12.00;10.90;;;;;;;14.84;63.93;96575.36;109496;1292;22257;-86
2023/04/14 09:13:14;;;;;;;11.70;10.50;;;;;;;14.93;63.15;96575.91;109489;1290;22267;-86
2023/04/14 09:15:42;;;;;;;13.30;11.00;;;;;;;15.04;63.55;96579.35;109484;1291;22202;-89
2023/04/14 09:18:10;;;;;;;12.90;10.70;;;;;;;15.14;62.84;96577.15;109527;1291;22205;-87
2023/04/14 09:20:39;;;;;;;12.30;11.10;;;;;;;15.15;62.80;96565.08;109448;1292;22120;-87
2023/04/14 09:23:09;;;;;;;12.20;10.90;;;;;;;15.06;62.16;96572.90;109487;1292;22134;-85
2023/04/14 09:25:39;;;;;;;13.40;11.10;;;;;;;14.99;61.80;96566.95;109512;1292;22086;-88
2023/04/14 09:28:07;;;;;;;12.80;10.40;;;;;;;14.90;61.19;96567.56;109490;1291;22196;-87
2023/04/14 09:30:35;;;;;;;11.90;10.70;;;;;;;14.88;61.87;96564.28;109522;1292;22268;-88
2023/04/14 09:33:07;;;;;;;12.80;11.40;;;;;;;14.99;61.54;96566.73;109523;1291;22298;-85
2023/04/14 09:35:46;;;;;;;12.70;11.30;;;;;;;15.08;60.90;96567.80;109497;1291;22147;-86
2023/04/14 09:38:29;;;;;;;11.90;10.60;;;;;;;15.09;59.82;96565.58;109571;1292;22177;-86
2023/04/14 09:40:57;;;;;;;14.60;11.50;;;;;;;15.00;59.53;96564.64;109591;1292;22303;-87
2023/04/14 09:43:28;;;;;;;13.50;11.90;;;;;;;14.93;59.24;96562.73;109686;1292;22200;-87
2023/04/14 09:46:03;;;;;;;11.60;10.50;;;;;;;14.87;59.58;96559.14;109772;1292;22175;-86
2023/04/14 09:48:31;;;;;;;12.20;10.90;;;;;;;14.90;59.08;96552.84;109813;1292;22170;-87
2023/04/14 09:51:02;;;;;;;12.30;10.40;;;;;;;14.98;59.83;96553.67;109774;1292;22212;-85
2023/04/14 09:53:32;;;;;;;11.80;10.60;;;;;;;15.08;59.90;96550.69;109717;1292;22189;-85
2023/04/14 09:56:03;;;;;;;11.30;9.60;;;;;;;15.16;58.64;96551.52;109528;1292;22257;-88
2023/04/14 09:58:34;;;;;;;13.10;9.30;;;;;;;15.14;57.58;96543.35;109503;1292;22212;-88
2023/04/14 10:01:04;;;;;;;11.00;9.70;;;;;;;15.14;58.61;96542.58;109502;1292;22203;-87
2023/04/14 10:03:37;;;;;;;11.00;9.80;;;;;;;15.13;58.21;96540.00;109426;1292;22121;-87
2023/04/14 10:06:26;;;;;;;12.20;9.30;;;;;;;15.12;58.38;96539.20;109540;1291;21733;-88
2023/04/14 10:08:54;;;;;;;14.00;9.40;;;;;;;15.07;57.97;96535.70;109458;1292;22363;-88
2023/04/14 10:11:28;;;;;;;12.90;9.10;;;;;;;14.99;57.07;96537.73;109469;1292;22895;-91
2023/04/14 10:14:05;;;;;;;9.20;8.30;;;;;;;14.91;57.23;96531.94;109427;1292;22154;-88
2023/04/14 10:16:33;;;;;;;17.40;8.50;;;;;;;14.87;57.36;96534.11;109455;1292;22417;-90
2023/04/14 10:19:02;;;;;;;11.10;7.90;;;;;;;14.87;57.89;96529.08;109527;1286;22141;-89
2023/04/14 10:21:31;;;;;;;10.20;6.70;;;;;;;14.86;56.79;96525.34;109519;1291;22927;-88
2023/04/14 10:24:00;;;;;;;8.50;6.90;;;;;;;14.84;56.59;96524.36;109509;1292;22219;-88
2023/04/14 10:26:29;;;;;;;6.90;6.10;;;;;;;14.81;55.97;96525.08;109468;1292;22191;-86
2023/04/14 10:28:57;;;;;;;8.80;6.40;;;;;;;14.76;55.82;96531.43;109484;1292;22996;-89
2023/04/14 10:31:33;;;;;;;7.80;5.50;;;;;;;14.74;55.33;96526.43;109461;1292;22141;-89
2023/04/14 10:34:12;;;;;;;9.00;5.50;;;;;;;14.72;55.06;96527.95;109484;1291;22769;-87
2023/04/14 10:36:41;;;;;;;7.50;5.60;;;;;;;14.72;56.12;96522.45;109449;1292;22236;-88
2023/04/14 10:39:10;;;;;;;10.10;6.50;;;;;;;14.76;56.39;96514.08;109469;1291;22396;-88
2023/04/14 10:41:41;;;;;;;8.40;6.00;;;;;;;14.82;57.25;96514.48;109491;1292;22867;-89
2023/04/14 10:44:30;;;;;;;8.50;6.10;;;;;;;14.88;56.38;96517.33;109515;1292;22149;-86
2023/04/14 10:47:03;;;;;;;9.50;5.60;;;;;;;14.94;56.37;96508.98;109490;1292;22291;-87
2023/04/14 10:49:37;;;;;;;8.30;5.50;;;;;;;15.02;55.73;96504.94;109479;1292;22249;-89
2023/04/14 10:52:14;;;;;;;7.20;5.10;;;;;;;15.09;53.25;96504.19;109486;1292;23034;-87
2023/04/14 10:55:00;;;;;;;9.20;4.50;;;;;;;15.11;53.63;96499.58;109513;1292;22217;-89
2023/04/14 10:57:29;;;;;;;10.00;8.40;;;;;;;15.26;52.29;96498.42;109500;1292;22208;-89
2023/04/14 10:59:58;;;;;;;11.20;5.20;;;;;;;15.35;51.72;96497.64;109413;1292;22248;-88
2023/04/14 11:02:31;;;;;;;7.10;4.70;;;;;;;15.46;52.06;96490.98;109489;1292;22132;-87
2023/04/14 11:05:10;;;;;;;8.70;4.60;;;;;;;15.59;50.12;96487.14;109411;1292;22269;-88
2023/04/14 11:07:47;;;;;;;9.30;4.90;;;;;;;15.63;50.18;96487.52;109504;1292;22400;-85
2023/04/14 11:10:20;;;;;;;6.20;4.70;;;;;;;15.75;51.23;96486.16;109493;1292;22476;-89
2023/04/14 11:13:12;;;;;;;9.30;4.70;;;;;;;15.86;50.32;96476.32;109503;1292;22229;-86
2023/04/14 11:16:00;;;;;;;6.80;4.60;;;;;;;15.97;49.03;96471.57;109498;1292;22235;-86
2023/04/14 11:18:28;;;;;;;8.20;4.10;;;;;;;16.13;48.70;96479.14;109509;1292;22228;-86
2023/04/14 11:21:07;;;;;;;7.10;4.80;;;;;;;16.28;48.93;96483.28;109570;1292;22147;-87
2023/04/14 11:23:36;;;;;;;7.20;4.70;;;;;;;16.39;47.71;96489.63;109767;1292;22276;-86
2023/04/14 11:26:06;;;;;;;10.10;4.40;;;;;;;16.47;47.21;96482.17;109713;1292;22145;-88
2023/04/14 11:28:36;;;;;;;6.30;4.70;;;;;;;16.53;47.18;96478.44;109726;1292;22202;-87
2023/04/14 11:31:07;;;;;;;5.70;4.40;;;;;;;16.70;45.94;96480.31;109489;1292;22202;-87
2023/04/14 11:33:37;;;;;;;6.40;4.60;;;;;;;16.91;46.08;96473.19;109478;1291;22283;-88
2023/04/14 11:36:06;;;;;;;6.80;4.80;;;;;;;17.20;45.03;96466.66;109432;1292;22279;-86
2023/04/14 11:38:39;;;;;;;8.90;4.50;;;;;;;17.43;44.77;96462.32;109450;1292;22146;-86
2023/04/14 11:41:08;;;;;;;7.40;4.50;;;;;;;17.57;44.68;96461.64;109472;1292;22194;-86
2023/04/14 11:43:37;;;;;;;7.10;4.60;;;;;;;17.55;43.19;96462.64;109504;1291;22151;-88
2023/04/14 11:46:07;;;;;;;5.30;4.30;;;;;;;17.44;42.35;96455.56;109533;1292;22256;-87
2023/04/14 11:48:36;;;;;;;5.40;4.20;;;;;;;17.25;42.20;96449.83;109477;1292;22437;-89
2023/04/14 11:51:04;;;;;;;4.50;3.60;;;;;;;17.06;43.07;96447.27;109535;1292;22105;-87